createdAt,value
2023-01-30T00:01:12.807Z,69.66
2023-01-30T00:04:20.963Z,69.50
2023-01-30T00:06:54.229Z,69.39
2023-01-30T00:09:22.429Z,69.48
2023-01-30T00:11:50.315Z,69.61
2023-01-30T00:14:18.207Z,69.95
2023-01-30T00:16:46.172Z,69.71
2023-01-30T00:19:14.142Z,69.46
2023-01-30T00:21:41.977Z,69.71
2023-01-30T00:24:10.132Z,69.40
2023-01-30T00:26:38.278Z,68.99
2023-01-30T00:29:06.665Z,69.16
2023-01-30T00:31:34.634Z,69.54
2023-01-30T00:34:02.931Z,69.52
2023-01-30T00:36:30.826Z,69.26
2023-01-30T00:38:59.857Z,69.14
2023-01-30T00:41:47.816Z,69.50
2023-01-30T00:44:26.871Z,69.24
2023-01-30T00:47:06.963Z,69.08
2023-01-30T00:49:36.039Z,69.14
2023-01-30T00:52:04.733Z,69.04
2023-01-30T00:54:32.645Z,69.31
2023-01-30T00:57:00.728Z,68.99
2023-01-30T00:59:29.269Z,68.88
2023-01-30T01:01:57.210Z,69.03
2023-01-30T01:04:25.315Z,69.31
2023-01-30T01:06:53.240Z,69.03
2023-01-30T01:09:21.221Z,69.37
2023-01-30T01:11:50.156Z,69.21
2023-01-30T01:14:18.085Z,69.19
2023-01-30T01:16:46.056Z,69.23
2023-01-30T01:19:14.062Z,68.85
2023-01-30T01:21:41.935Z,69.10
2023-01-30T01:24:13.489Z,69.40
2023-01-30T01:26:41.976Z,69.28
2023-01-30T01:29:14.594Z,69.20
2023-01-30T01:31:44.156Z,68.68
2023-01-30T01:34:12.814Z,69.06
2023-01-30T01:36:56.076Z,69.00
2023-01-30T01:39:24.077Z,69.13
2023-01-30T01:41:52.220Z,68.99
2023-01-30T01:44:20.012Z,69.16
2023-01-30T01:47:01.341Z,68.85
2023-01-30T01:49:33.686Z,69.06
2023-01-30T01:52:11.473Z,69.07
2023-01-30T01:54:47.287Z,69.41
2023-01-30T01:57:20.833Z,68.66
2023-01-30T01:59:53.642Z,69.09
2023-01-30T02:02:22.107Z,69.49
2023-01-30T02:05:06.533Z,69.33
2023-01-30T02:08:00.840Z,69.29
2023-01-30T02:11:02.546Z,69.14
2023-01-30T02:13:31.384Z,69.24
2023-01-30T02:16:01.930Z,69.64
2023-01-30T02:18:34.568Z,69.47
2023-01-30T02:21:35.279Z,69.54
2023-01-30T02:24:33.271Z,69.46
2023-01-30T02:27:33.929Z,69.55
2023-01-30T02:30:23.786Z,69.37
2023-01-30T02:33:13.092Z,69.22
2023-01-30T02:36:06.148Z,69.44
2023-01-30T02:38:47.734Z,69.14
2023-01-30T02:41:42.449Z,69.14
2023-01-30T02:44:36.072Z,69.35
2023-01-30T02:47:19.433Z,69.08
2023-01-30T02:49:53.927Z,68.97
2023-01-30T02:52:23.153Z,69.21
2023-01-30T02:54:51.391Z,69.08
2023-01-30T02:57:23.254Z,69.39
2023-01-30T03:00:01.712Z,69.32
2023-01-30T03:03:07.006Z,69.49
2023-01-30T03:05:56.122Z,69.58
2023-01-30T03:08:35.117Z,69.50
2023-01-30T03:11:06.828Z,69.96
2023-01-30T03:13:52.937Z,69.76
2023-01-30T03:16:26.601Z,69.94
2023-01-30T03:18:55.600Z,69.84
2023-01-30T03:21:23.486Z,69.86
2023-01-30T03:23:53.016Z,69.82
2023-01-30T03:26:26.132Z,69.85
2023-01-30T03:28:54.374Z,69.81
2023-01-30T03:31:22.459Z,69.86
2023-01-30T03:33:50.540Z,70.23
2023-01-30T03:36:18.813Z,69.77
2023-01-30T03:38:46.791Z,70.14
2023-01-30T03:41:14.756Z,69.95
2023-01-30T03:43:42.672Z,69.96
2023-01-30T03:46:10.837Z,70.33
2023-01-30T03:48:39.704Z,70.18
2023-01-30T03:51:08.351Z,70.19
2023-01-30T03:53:36.271Z,69.93
2023-01-30T03:56:04.649Z,70.11
2023-01-30T03:58:33.450Z,70.04
2023-01-30T04:01:10.555Z,69.96
2023-01-30T04:03:38.621Z,70.18
2023-01-30T04:06:06.816Z,69.83
2023-01-30T04:08:34.925Z,69.38
2023-01-30T04:11:04.413Z,68.88
2023-01-30T04:13:32.416Z,68.87
2023-01-30T04:16:22.220Z,68.75
2023-01-30T04:19:06.864Z,68.69
2023-01-30T04:21:34.986Z,69.00
2023-01-30T04:24:02.959Z,68.90
2023-01-30T04:26:30.910Z,68.34
2023-01-30T04:28:59.132Z,68.05
2023-01-30T04:31:27.998Z,68.29
2023-01-30T04:34:00.016Z,68.56
2023-01-30T04:36:29.287Z,68.77
2023-01-30T04:38:58.248Z,68.74
2023-01-30T04:41:26.378Z,68.21
2023-01-30T04:43:57.999Z,67.97
2023-01-30T04:46:34.608Z,68.15
2023-01-30T04:49:02.453Z,68.24
2023-01-30T04:51:30.727Z,68.38
2023-01-30T04:53:59.218Z,68.48
2023-01-30T04:56:27.351Z,68.33
2023-01-30T04:58:55.296Z,68.45
2023-01-30T05:01:30.633Z,68.41
2023-01-30T05:03:59.586Z,68.46
2023-01-30T05:06:31.213Z,68.77
2023-01-30T05:08:59.657Z,68.79
2023-01-30T05:11:29.400Z,68.34
2023-01-30T05:13:58.668Z,68.70
2023-01-30T05:16:27.531Z,68.61
2023-01-30T05:18:55.567Z,68.70
2023-01-30T05:21:29.784Z,68.46
2023-01-30T05:23:58.361Z,68.65
2023-01-30T05:26:26.948Z,68.00
2023-01-30T05:28:57.345Z,68.57
2023-01-30T05:31:25.957Z,68.40
2023-01-30T05:33:58.400Z,68.11
2023-01-30T05:36:26.586Z,67.89
2023-01-30T05:38:54.522Z,68.21
2023-01-30T05:41:22.557Z,68.22
2023-01-30T05:43:51.326Z,68.20
2023-01-30T05:46:20.076Z,68.53
2023-01-30T05:48:48.343Z,68.56
2023-01-30T05:51:23.296Z,68.65
2023-01-30T05:53:51.570Z,68.38
2023-01-30T05:56:20.137Z,68.25
2023-01-30T05:58:53.733Z,68.25
2023-01-30T06:01:23.276Z,67.35
2023-01-30T06:03:52.980Z,66.10
2023-01-30T06:06:22.157Z,66.36
2023-01-30T06:08:55.650Z,65.77
2023-01-30T06:11:28.735Z,66.33
2023-01-30T06:13:57.592Z,66.14
2023-01-30T06:16:27.435Z,66.32
2023-01-30T06:18:55.973Z,66.43
2023-01-30T06:21:57.963Z,66.87
2023-01-30T06:24:26.604Z,65.78
2023-01-30T06:26:54.700Z,66.44
2023-01-30T06:29:23.635Z,66.38
2023-01-30T06:31:51.579Z,66.35
2023-01-30T06:34:20.528Z,66.25
2023-01-30T06:37:15.821Z,66.64
2023-01-30T06:39:43.756Z,66.69
2023-01-30T06:42:53.759Z,67.17
2023-01-30T06:45:26.986Z,67.01
2023-01-30T06:47:56.464Z,67.21
2023-01-30T06:50:32.130Z,66.76
2023-01-30T06:53:09.006Z,66.91
2023-01-30T06:55:37.134Z,66.75
2023-01-30T06:58:11.802Z,66.81
2023-01-30T07:00:42.535Z,67.16
2023-01-30T07:07:37.776Z,67.09
2023-01-30T07:14:32.051Z,66.81
2023-01-30T07:18:43.496Z,65.74
2023-01-30T07:22:08.707Z,65.99
2023-01-30T07:32:39.813Z,65.25
2023-01-30T09:08:12.394Z,58.84
2023-01-30T09:35:32.412Z,56.06
2023-01-30T09:42:29.250Z,56.10
2023-01-30T09:46:01.272Z,56.72
2023-01-30T09:49:34.591Z,56.18
2023-01-30T09:53:14.602Z,56.06
2023-01-30T09:56:50.274Z,55.88
2023-01-30T10:00:41.578Z,55.26
2023-01-30T10:04:15.730Z,53.97
2023-01-30T10:08:03.907Z,54.24
2023-01-30T10:11:28.253Z,55.34
2023-01-30T10:15:29.477Z,56.09
2023-01-30T10:19:33.871Z,54.43
2023-01-30T10:22:54.543Z,54.44
2023-01-30T10:25:41.951Z,53.21
2023-01-30T10:28:32.082Z,53.53
2023-01-30T10:31:30.949Z,53.79
2023-01-30T10:34:09.503Z,54.68
2023-01-30T10:44:23.149Z,55.86
2023-01-30T10:47:47.534Z,53.69
2023-01-30T10:51:14.805Z,54.25
2023-01-30T10:53:57.997Z,54.07
2023-01-30T10:57:08.034Z,53.80
2023-01-30T11:03:44.938Z,54.18
2023-01-30T11:07:46.247Z,54.81
2023-01-30T11:11:04.180Z,53.50
2023-01-30T11:14:22.269Z,53.92
2023-01-30T11:19:18.330Z,54.00
2023-01-30T11:29:50.171Z,55.28
2023-01-30T11:37:53.441Z,54.44
2023-01-30T11:40:57.843Z,53.86
2023-01-30T11:44:43.858Z,53.55
2023-01-30T11:48:33.075Z,53.20
2023-01-30T11:55:29.472Z,53.79
2023-01-30T11:58:39.694Z,53.79
2023-01-30T12:02:11.966Z,54.87
2023-01-30T12:04:45.541Z,55.61
2023-01-30T12:07:32.661Z,54.68
2023-01-30T12:10:51.108Z,53.49
2023-01-30T12:27:16.205Z,54.79
2023-01-30T12:30:21.981Z,55.56
2023-01-30T12:34:02.883Z,54.25
2023-01-30T12:37:22.368Z,52.61
2023-01-30T12:41:09.468Z,52.75
2023-01-30T12:44:19.973Z,52.63
2023-01-30T12:47:42.436Z,52.70
2023-01-30T12:50:59.969Z,52.36
2023-01-30T12:54:23.423Z,52.85
2023-01-30T12:57:22.368Z,53.60
2023-01-30T13:00:31.618Z,53.71
2023-01-30T13:11:12.019Z,54.59
2023-01-30T13:14:26.129Z,54.99
2023-01-30T13:17:33.836Z,55.09
2023-01-30T13:21:09.045Z,54.97
2023-01-30T13:24:11.930Z,55.05
2023-01-30T13:26:56.587Z,54.64
2023-01-30T13:29:56.767Z,54.59
2023-01-30T13:33:15.055Z,54.42
2023-01-30T13:35:48.844Z,54.69
2023-01-30T13:38:26.560Z,55.09
2023-01-30T13:41:04.177Z,54.34
2023-01-30T13:43:40.862Z,54.72
2023-01-30T13:46:59.567Z,55.51
2023-01-30T13:52:26.245Z,56.08
2023-01-30T13:54:41.605Z,57.66
2023-01-30T14:07:11.344Z,57.84
2023-01-30T14:56:21.035Z,59.88
2023-01-30T14:59:59.773Z,60.60
2023-01-30T15:07:02.689Z,62.39
2023-01-30T15:10:17.215Z,62.96
2023-01-30T15:14:23.663Z,62.89
2023-01-30T15:21:08.723Z,63.63
2023-01-30T15:24:38.570Z,64.80
2023-01-30T15:28:01.557Z,65.22
2023-01-30T15:31:36.690Z,65.07
2023-01-30T15:35:07.591Z,64.58
2023-01-30T15:38:38.603Z,65.01
2023-01-30T15:42:03.591Z,65.75
2023-01-30T15:45:16.653Z,65.27
2023-01-30T15:48:45.584Z,65.28
2023-01-30T15:52:15.813Z,66.36
2023-01-30T15:59:26.702Z,66.37
2023-01-30T16:06:22.618Z,66.57
2023-01-30T16:10:07.317Z,67.04
2023-01-30T16:13:24.566Z,66.66
2023-01-30T16:16:42.609Z,66.95
2023-01-30T16:24:07.610Z,67.87
2023-01-30T16:27:49.530Z,67.95
2023-01-30T16:31:15.653Z,67.78
2023-01-30T16:34:51.529Z,68.40
2023-01-30T16:38:14.578Z,68.85
2023-01-30T16:41:50.655Z,69.28
2023-01-30T16:45:26.571Z,68.76
2023-01-30T16:48:43.670Z,69.17
2023-01-30T16:59:51.613Z,69.95
2023-01-30T17:03:48.086Z,69.01
2023-01-30T17:07:10.506Z,68.85
2023-01-30T17:11:05.558Z,68.72
2023-01-30T17:14:47.537Z,68.43
2023-01-30T17:18:27.542Z,68.81
2023-01-30T17:21:46.685Z,68.63
2023-01-30T17:25:32.546Z,68.69
2023-01-30T17:29:01.513Z,69.34
2023-01-30T17:32:13.546Z,68.91
2023-01-30T17:35:40.604Z,69.66
2023-01-30T17:38:49.694Z,69.16
2023-01-30T17:42:08.583Z,69.41
2023-01-30T17:45:21.634Z,69.41
2023-01-30T17:48:48.309Z,69.22
2023-01-30T17:52:24.527Z,69.39
2023-01-30T17:55:35.553Z,69.98
2023-01-30T17:59:05.466Z,69.94
2023-01-30T18:02:47.729Z,70.08
2023-01-30T18:06:08.624Z,70.04
2023-01-30T18:09:35.628Z,70.29
2023-01-30T18:13:21.575Z,70.52
2023-01-30T18:16:53.107Z,70.65
2023-01-30T18:20:47.401Z,71.00
2023-01-30T18:24:03.545Z,71.11
2023-01-30T18:27:32.489Z,70.93
2023-01-30T18:30:59.652Z,70.81
2023-01-30T18:34:14.522Z,71.35
2023-01-30T18:38:02.399Z,71.38
2023-01-30T18:41:25.935Z,71.69
2023-01-30T18:45:23.617Z,71.65
2023-01-30T18:48:58.507Z,72.88
2023-01-30T18:52:27.578Z,74.40
2023-01-30T18:55:54.469Z,73.92
2023-01-30T18:59:24.601Z,74.28
2023-01-30T19:02:54.607Z,73.38
2023-01-30T19:06:11.854Z,73.77
2023-01-30T19:09:50.489Z,74.14
2023-01-30T19:13:04.610Z,73.86
2023-01-30T19:16:31.554Z,75.03
2023-01-30T19:20:02.538Z,74.97
2023-01-30T19:23:17.564Z,75.99
2023-01-30T19:26:57.716Z,77.52
2023-01-30T19:30:31.976Z,77.17
2023-01-30T19:34:23.504Z,77.33
2023-01-30T19:38:03.607Z,77.66
2023-01-30T19:41:14.496Z,76.48
2023-01-30T19:44:46.542Z,77.37
2023-01-30T19:48:19.546Z,76.40
2023-01-30T19:52:04.632Z,76.31
2023-01-30T19:54:59.499Z,76.84
2023-01-30T19:58:48.619Z,77.91
2023-01-30T20:02:30.155Z,80.46
2023-01-30T20:05:38.734Z,79.93
2023-01-30T20:09:16.355Z,78.60
2023-01-30T20:12:28.193Z,78.26
2023-01-30T20:16:06.273Z,77.85
2023-01-30T20:19:35.685Z,77.53
2023-01-30T20:22:55.638Z,78.00
2023-01-30T20:26:40.015Z,78.57
2023-01-30T20:30:33.829Z,81.04
2023-01-30T20:33:41.487Z,80.72
2023-01-30T20:37:01.514Z,79.66
2023-01-30T20:40:06.281Z,79.64
2023-01-30T20:43:25.897Z,79.27
2023-01-30T20:47:14.493Z,79.00
2023-01-30T20:50:26.826Z,79.48
2023-01-30T20:53:54.540Z,79.64
2023-01-30T20:57:03.840Z,79.48
2023-01-30T21:00:34.778Z,80.65
2023-01-30T21:03:23.389Z,81.09
2023-01-30T21:06:41.490Z,79.91
2023-01-30T21:10:20.452Z,79.78
2023-01-30T21:14:03.483Z,82.74
2023-01-30T21:17:30.558Z,83.01
2023-01-30T21:21:01.188Z,84.01
2023-01-30T21:23:44.200Z,84.64
2023-01-30T21:27:23.479Z,82.90
2023-01-30T21:31:11.748Z,82.95
2023-01-30T21:34:35.543Z,84.69
2023-01-30T21:37:55.709Z,85.46
2023-01-30T21:40:54.514Z,85.15
2023-01-30T21:44:14.542Z,83.69
2023-01-30T21:47:34.918Z,83.35
2023-01-30T21:50:59.546Z,83.96
2023-01-30T21:53:40.062Z,82.93
2023-01-30T21:56:40.078Z,82.68
2023-01-30T22:03:30.596Z,85.04
2023-01-30T22:06:55.654Z,84.79
2023-01-30T22:10:17.574Z,83.90
2023-01-30T22:14:24.518Z,83.26
2023-01-30T22:18:11.392Z,82.82
2023-01-30T22:21:40.297Z,82.92
2023-01-30T22:25:15.027Z,82.84
2023-01-30T22:28:17.712Z,82.73
2023-01-30T22:30:45.774Z,82.46
2023-01-30T22:33:14.471Z,83.04
2023-01-30T22:35:50.224Z,84.32
2023-01-30T22:38:20.103Z,85.29
2023-01-30T22:40:47.895Z,84.72
2023-01-30T22:43:16.394Z,85.08
2023-01-30T22:45:44.449Z,84.56
2023-01-30T22:48:12.333Z,83.84
2023-01-30T22:50:40.338Z,83.68
2023-01-30T22:53:08.169Z,84.25
2023-01-30T22:55:36.141Z,83.63
2023-01-30T22:58:04.140Z,84.64
2023-01-30T23:00:31.916Z,84.58
2023-01-30T23:02:59.825Z,84.51
2023-01-30T23:05:27.883Z,84.76
2023-01-30T23:07:55.892Z,85.39
2023-01-30T23:10:23.945Z,85.42
2023-01-30T23:13:01.939Z,86.03
2023-01-30T23:15:35.552Z,86.44
2023-01-30T23:18:22.313Z,86.89
2023-01-30T23:21:32.238Z,87.47
2023-01-30T23:25:09.321Z,89.07
2023-01-30T23:28:27.453Z,89.44
2023-01-30T23:32:20.556Z,89.35
2023-01-30T23:35:09.559Z,88.77
2023-01-30T23:38:51.169Z,88.04
2023-01-30T23:42:29.186Z,88.87
2023-01-30T23:45:59.516Z,87.52
2023-01-30T23:49:32.146Z,86.66
2023-01-30T23:53:02.239Z,86.00
2023-01-30T23:56:11.006Z,86.01
2023-01-30T23:59:22.720Z,87.34
